LYVR

Details ICAO LYVR
Name VRSAC
Region Serbia and Montenegro
Timezone Europe/Belgrade (UTC+2.0)
Plans Departing 7
Arriving 6
Stats Elevation 276 ft / 84 m (AMSL)
Location 45.147866° 21.308824°
Runways 3
Magnetic Variation 4.934° E
Sunrise 2018-05-21 03:00:43 UTC / 2018-05-21 05:00:43 Local
Sunset 2018-05-21 18:04:50 UTC / 2018-05-21 20:04:50 Local
Advertisement - Login to hide

Runways

ID Width Length Bearing (true) Bearing (mag) Surface Threshold Offset Overrun Length
01L 230 ft / 70 m 2,738 ft / 835 m 12.21° 7.28° Grass 0 ft / 0 m 0 ft / 0 m
01R 72 ft / 22 m 3,286 ft / 1,002 m 12.05° 7.12° Asphalt 0 ft / 0 m 0 ft / 0 m
16 110 ft / 34 m 1,541 ft / 470 m 161.32° 156.39° Grass 0 ft / 0 m 0 ft / 0 m
19L 72 ft / 22 m 3,286 ft / 1,002 m 192.05° 187.12° Asphalt 0 ft / 0 m 0 ft / 0 m
19R 230 ft / 70 m 2,738 ft / 835 m 192.21° 187.28° Grass 0 ft / 0 m 0 ft / 0 m
34 110 ft / 34 m 1,541 ft / 470 m 341.33° 336.40° Grass 0 ft / 0 m 0 ft / 0 m

Map

Weather


0- 5 10 15 20 25 30 35+ Temperature / ° C

Clouds and Precipitation
Forecast for 2018-05-21 18:00 UTC. Updated 4 hours ago

Ground ~20,000 ft ~40,000 ft Winds

METAR

LYVR 212030Z 14015G27KT CAVOK 20/13 Q1016 NOSIG

TAF

TAF LYVR 211700Z 2118/2218 14015KT 9999 FEW033 TX27/2213Z TN15/2203Z TEMPO 2118/2119 14015G35KT

Frequencies

Tower 123.50 MHz INFO
Approach 125.05 MHz APP
Tower 118.60 MHz TWR
Approach 118.60 MHz APP
Warning: Do not use this data for real-world aviation or navigation. No guarantee of current accuracy is given.